首页
METAR-TAF:

METAR-TAF

机场 :

Fort Huachuca / Sierra Vista, 亞利桑那州, 美国

纬度: 31-35N, 经度: 110-20W, 海拔: 1438米

当前天气观测

该预报发布于12分钟前的04:43 UTC
风速6节,风向西
温度 13°C
湿度 94%
气压 1011 hPa
能見度: 6.4公里
多云层高于600英尺
阴天层高于2400英尺
小雨, 轻雾

METAR: KFHU 200443Z 27006KT 4SM -RA BR BKN006 OVC024 13/12 A2986 RMK AO2A CIG 004V006 BKN V OVC SLP052

时间: 21:55 (04:55 UTC)

预报

该预报发布于2小时和53分钟前的02:02 UTC
预报有效从20日的 02点(UTC)到 21日的 08点(UTC)
风速9节,风向
能見度: 4800
多云层高于400英尺, 积雨云.
阴天层高于1000英尺
小阵雨, 附近有雷暴
成为
从 20日的 05点(UTC)到 20日的 06点(UTC)
风速12节,风向南转西南,有时为25节阵风
能見度: 8000
多云层高于1000英尺, 积雨云.
小阵雨, 附近有雷暴
成为
从 20日的 11点(UTC)到 20日的 12点(UTC)
风速25节,风向南转西南,有时为35节阵风
能见度10公里或以上
多云层高于1500英尺
附近有阵雨
成为
从 21日的 02点(UTC)到 21日的 03点(UTC)
风速30节,风向南转西南,有时为40节阵风
能見度: 4800
多云层高于1500英尺
小阵雨

TAF: KFHU 200202Z 2002/2108 10009KT 4800 -SHRA VCTS BKN004CB OVC010 QNH2988INS BECMG 2005/2006 21012G25KT 8000 -SHRA VCTS BKN010CB QNH2980INS BECMG 2011/2012 21025G35KT 9999 VCSH BKN015 530009 QNH2980INS BECMG 2102/2103 20030G40KT 4800 -SHRA BKN015 530009 QNH2984INS TX18/2021Z TN08/2012Z

超过4000个机场的气象观测和天气预报(METAR&TAF报告)。

可查询的气象台以黄色和红色小点在地图上表示。

将鼠标移到小点上方,可查看气象台名称。

然后点击查看天气观测和预报。

如需切换地图:点击带黑十字的绿色按钮放大地图;点击带横线的绿色按钮缩小地图;或者点击绿色箭头查看邻近地区的地图。


METAR-TAF: